sensor_id;sensor_type;location;lat;lon;timestamp;temperature;humidity
28614;DHT22;15806;53.548;9.964;2023-02-01T00:00:47;5.70;99.90
28614;DHT22;15806;53.548;9.964;2023-02-01T00:02:27;5.80;99.90
28614;DHT22;15806;53.548;9.964;2023-02-01T00:04:08;5.80;99.90
28614;DHT22;15806;53.548;9.964;2023-02-01T00:05:58;5.80;99.90
28614;DHT22;15806;53.548;9.964;2023-02-01T00:07:39;5.90;99.90
28614;DHT22;15806;53.548;9.964;2023-02-01T00:09:20;5.90;99.90
28614;DHT22;15806;53.548;9.964;2023-02-01T00:11:09;5.90;99.90
28614;DHT22;15806;53.548;9.964;2023-02-01T00:12:50;5.80;99.90
28614;DHT22;15806;53.548;9.964;2023-02-01T00:14:30;5.80;99.90
28614;DHT22;15806;53.548;9.964;2023-02-01T00:16:14;5.80;99.90
28614;DHT22;15806;53.548;9.964;2023-02-01T00:17:55;5.80;99.90
28614;DHT22;15806;53.548;9.964;2023-02-01T00:19:35;5.80;99.90
28614;DHT22;15806;53.548;9.964;2023-02-01T00:21:18;5.90;99.90
28614;DHT22;15806;53.548;9.964;2023-02-01T00:22:59;5.80;99.90
28614;DHT22;15806;53.548;9.964;2023-02-01T00:24:40;5.90;99.90
28614;DHT22;15806;53.548;9.964;2023-02-01T00:26:35;5.90;99.90
28614;DHT22;15806;53.548;9.964;2023-02-01T00:28:16;5.90;99.90
28614;DHT22;15806;53.548;9.964;2023-02-01T00:29:57;5.90;99.90
28614;DHT22;15806;53.548;9.964;2023-02-01T00:31:37;5.90;99.90
28614;DHT22;15806;53.548;9.964;2023-02-01T00:33:18;5.90;99.90
28614;DHT22;15806;53.548;9.964;2023-02-01T00:34:58;5.90;99.90
28614;DHT22;15806;53.548;9.964;2023-02-01T00:36:40;5.90;99.90
28614;DHT22;15806;53.548;9.964;2023-02-01T00:38:20;5.90;99.90
28614;DHT22;15806;53.548;9.964;2023-02-01T00:40:01;5.90;99.90
28614;DHT22;15806;53.548;9.964;2023-02-01T00:41:41;6.00;99.90
28614;DHT22;15806;53.548;9.964;2023-02-01T00:43:22;6.00;99.90
28614;DHT22;15806;53.548;9.964;2023-02-01T00:45:03;6.00;99.90
28614;DHT22;15806;53.548;9.964;2023-02-01T00:46:44;6.00;99.90
28614;DHT22;15806;53.548;9.964;2023-02-01T00:48:25;6.00;99.90
28614;DHT22;15806;53.548;9.964;2023-02-01T00:50:06;6.10;99.90
28614;DHT22;15806;53.548;9.964;2023-02-01T00:51:46;6.10;99.90
28614;DHT22;15806;53.548;9.964;2023-02-01T00:53:27;6.10;99.90
28614;DHT22;15806;53.548;9.964;2023-02-01T00:55:08;6.10;99.90
28614;DHT22;15806;53.548;9.964;2023-02-01T00:56:49;6.10;99.90
28614;DHT22;15806;53.548;9.964;2023-02-01T00:58:29;6.20;99.90
28614;DHT22;15806;53.548;9.964;2023-02-01T01:00:10;6.10;99.90
28614;DHT22;15806;53.548;9.964;2023-02-01T01:01:51;6.10;99.90
28614;DHT22;15806;53.548;9.964;2023-02-01T01:03:33;6.10;99.90
28614;DHT22;15806;53.548;9.964;2023-02-01T01:05:13;6.20;99.90
28614;DHT22;15806;53.548;9.964;2023-02-01T01:06:54;6.20;99.90
28614;DHT22;15806;53.548;9.964;2023-02-01T01:08:35;6.20;99.90
28614;DHT22;15806;53.548;9.964;2023-02-01T01:10:16;6.20;99.90
28614;DHT22;15806;53.548;9.964;2023-02-01T01:11:57;6.20;99.90
28614;DHT22;15806;53.548;9.964;2023-02-01T01:13:38;6.20;99.90
28614;DHT22;15806;53.548;9.964;2023-02-01T01:15:19;6.30;99.90
28614;DHT22;15806;53.548;9.964;2023-02-01T01:16:59;6.20;99.90
28614;DHT22;15806;53.548;9.964;2023-02-01T01:18:40;6.20;99.90
28614;DHT22;15806;53.548;9.964;2023-02-01T01:20:20;6.20;99.90
28614;DHT22;15806;53.548;9.964;2023-02-01T01:22:01;6.30;99.90
28614;DHT22;15806;53.548;9.964;2023-02-01T01:23:42;6.20;99.90
28614;DHT22;15806;53.548;9.964;2023-02-01T01:25:22;6.30;99.90
28614;DHT22;15806;53.548;9.964;2023-02-01T01:27:03;6.30;99.90
28614;DHT22;15806;53.548;9.964;2023-02-01T01:28:43;6.30;99.90
28614;DHT22;15806;53.548;9.964;2023-02-01T01:30:24;6.30;99.90
28614;DHT22;15806;53.548;9.964;2023-02-01T01:32:04;6.30;99.90
28614;DHT22;15806;53.548;9.964;2023-02-01T01:33:48;6.30;99.90
28614;DHT22;15806;53.548;9.964;2023-02-01T01:35:30;6.30;99.90
28614;DHT22;15806;53.548;9.964;2023-02-01T01:37:11;6.30;99.90
28614;DHT22;15806;53.548;9.964;2023-02-01T01:38:52;6.30;99.90
28614;DHT22;15806;53.548;9.964;2023-02-01T01:40:32;6.30;99.90
28614;DHT22;15806;53.548;9.964;2023-02-01T01:42:13;6.30;99.90
28614;DHT22;15806;53.548;9.964;2023-02-01T01:43:59;6.30;99.90
28614;DHT22;15806;53.548;9.964;2023-02-01T01:45:40;6.30;99.90
28614;DHT22;15806;53.548;9.964;2023-02-01T01:47:20;6.30;99.90
28614;DHT22;15806;53.548;9.964;2023-02-01T01:51:06;6.40;99.90
28614;DHT22;15806;53.548;9.964;2023-02-01T01:52:49;6.40;99.90
28614;DHT22;15806;53.548;9.964;2023-02-01T01:54:34;6.40;99.90
28614;DHT22;15806;53.548;9.964;2023-02-01T01:56:15;6.40;99.90
28614;DHT22;15806;53.548;9.964;2023-02-01T01:58:00;6.40;99.90
28614;DHT22;15806;53.548;9.964;2023-02-01T01:59:45;6.40;99.90
28614;DHT22;15806;53.548;9.964;2023-02-01T02:01:27;6.40;99.90
28614;DHT22;15806;53.548;9.964;2023-02-01T02:04:57;6.40;99.90
28614;DHT22;15806;53.548;9.964;2023-02-01T02:07:03;6.40;99.90
28614;DHT22;15806;53.548;9.964;2023-02-01T02:08:44;6.40;99.90
28614;DHT22;15806;53.548;9.964;2023-02-01T02:10:24;6.40;99.90
28614;DHT22;15806;53.548;9.964;2023-02-01T02:12:05;6.40;99.90
28614;DHT22;15806;53.548;9.964;2023-02-01T02:13:49;6.40;99.90
28614;DHT22;15806;53.548;9.964;2023-02-01T02:15:30;6.40;99.90
28614;DHT22;15806;53.548;9.964;2023-02-01T02:17:32;6.40;99.90
28614;DHT22;15806;53.548;9.964;2023-02-01T02:25:31;6.30;99.90
28614;DHT22;15806;53.548;9.964;2023-02-01T02:33:51;6.40;99.90
28614;DHT22;15806;53.548;9.964;2023-02-01T02:37:57;6.30;99.90
28614;DHT22;15806;53.548;9.964;2023-02-01T02:41:53;6.40;99.90
28614;DHT22;15806;53.548;9.964;2023-02-01T02:43:50;6.40;99.90
28614;DHT22;15806;53.548;9.964;2023-02-01T02:49:40;6.40;99.90
28614;DHT22;15806;53.548;9.964;2023-02-01T02:51:27;6.40;99.90
28614;DHT22;15806;53.548;9.964;2023-02-01T02:55:12;6.40;99.90
28614;DHT22;15806;53.548;9.964;2023-02-01T02:56:54;6.40;99.90
28614;DHT22;15806;53.548;9.964;2023-02-01T02:58:36;6.50;99.90
28614;DHT22;15806;53.548;9.964;2023-02-01T03:00:24;6.50;99.90
28614;DHT22;15806;53.548;9.964;2023-02-01T03:02:06;6.40;99.90
28614;DHT22;15806;53.548;9.964;2023-02-01T03:03:48;6.40;99.90
28614;DHT22;15806;53.548;9.964;2023-02-01T03:05:32;6.40;99.90
28614;DHT22;15806;53.548;9.964;2023-02-01T03:09:35;6.40;99.90
28614;DHT22;15806;53.548;9.964;2023-02-01T03:11:17;6.40;99.90
28614;DHT22;15806;53.548;9.964;2023-02-01T03:13:11;6.40;99.90
28614;DHT22;15806;53.548;9.964;2023-02-01T03:14:56;6.40;99.90
28614;DHT22;15806;53.548;9.964;2023-02-01T03:16:46;6.40;99.90
28614;DHT22;15806;53.548;9.964;2023-02-01T03:19:03;6.50;99.90
28614;DHT22;15806;53.548;9.964;2023-02-01T03:20:46;6.50;99.90
28614;DHT22;15806;53.548;9.964;2023-02-01T03:22:28;6.50;99.90
28614;DHT22;15806;53.548;9.964;2023-02-01T03:24:16;6.60;99.90
28614;DHT22;15806;53.548;9.964;2023-02-01T03:25:58;6.60;99.90
28614;DHT22;15806;53.548;9.964;2023-02-01T03:28:08;6.60;99.90
28614;DHT22;15806;53.548;9.964;2023-02-01T03:31:38;6.70;99.90
28614;DHT22;15806;53.548;9.964;2023-02-01T03:33:25;6.70;99.90
28614;DHT22;15806;53.548;9.964;2023-02-01T03:35:09;6.70;99.90
28614;DHT22;15806;53.548;9.964;2023-02-01T03:36:59;6.70;99.90
28614;DHT22;15806;53.548;9.964;2023-02-01T03:38:55;6.70;99.90
28614;DHT22;15806;53.548;9.964;2023-02-01T03:40:38;6.70;99.90
28614;DHT22;15806;53.548;9.964;2023-02-01T03:42:43;6.60;99.90
28614;DHT22;15806;53.548;9.964;2023-02-01T03:44:35;6.60;99.90
28614;DHT22;15806;53.548;9.964;2023-02-01T03:46:23;6.60;99.90
28614;DHT22;15806;53.548;9.964;2023-02-01T03:48:05;6.70;99.90
28614;DHT22;15806;53.548;9.964;2023-02-01T03:49:52;6.60;99.90
28614;DHT22;15806;53.548;9.964;2023-02-01T03:51:36;6.60;99.90
28614;DHT22;15806;53.548;9.964;2023-02-01T03:53:20;6.70;99.90
28614;DHT22;15806;53.548;9.964;2023-02-01T03:55:03;6.60;99.90
28614;DHT22;15806;53.548;9.964;2023-02-01T03:56:45;6.70;99.90
28614;DHT22;15806;53.548;9.964;2023-02-01T03:58:27;6.70;99.90
28614;DHT22;15806;53.548;9.964;2023-02-01T04:00:17;6.80;99.90
28614;DHT22;15806;53.548;9.964;2023-02-01T04:01:58;6.80;99.90
28614;DHT22;15806;53.548;9.964;2023-02-01T04:03:39;6.90;99.90
28614;DHT22;15806;53.548;9.964;2023-02-01T04:05:20;7.00;99.90
28614;DHT22;15806;53.548;9.964;2023-02-01T04:07:01;6.90;99.90
28614;DHT22;15806;53.548;9.964;2023-02-01T04:08:42;6.90;99.90
28614;DHT22;15806;53.548;9.964;2023-02-01T04:10:22;6.90;99.90
28614;DHT22;15806;53.548;9.964;2023-02-01T04:12:03;7.00;99.90
28614;DHT22;15806;53.548;9.964;2023-02-01T04:13:44;7.00;99.90
28614;DHT22;15806;53.548;9.964;2023-02-01T04:15:25;7.00;99.90
28614;DHT22;15806;53.548;9.964;2023-02-01T04:17:05;7.00;99.90
28614;DHT22;15806;53.548;9.964;2023-02-01T04:18:46;6.90;99.90
28614;DHT22;15806;53.548;9.964;2023-02-01T04:20:26;6.90;99.90
28614;DHT22;15806;53.548;9.964;2023-02-01T04:22:07;6.90;99.90
28614;DHT22;15806;53.548;9.964;2023-02-01T04:23:48;6.90;99.90
28614;DHT22;15806;53.548;9.964;2023-02-01T04:25:29;6.80;99.90
28614;DHT22;15806;53.548;9.964;2023-02-01T04:27:10;6.80;99.90
28614;DHT22;15806;53.548;9.964;2023-02-01T04:28:50;6.70;99.90
28614;DHT22;15806;53.548;9.964;2023-02-01T04:30:31;6.70;99.90
28614;DHT22;15806;53.548;9.964;2023-02-01T04:32:11;6.70;99.90
28614;DHT22;15806;53.548;9.964;2023-02-01T04:33:52;6.70;99.90
28614;DHT22;15806;53.548;9.964;2023-02-01T04:35:33;6.60;99.90
28614;DHT22;15806;53.548;9.964;2023-02-01T04:37:14;6.60;99.90
28614;DHT22;15806;53.548;9.964;2023-02-01T04:38:54;6.60;99.90
28614;DHT22;15806;53.548;9.964;2023-02-01T04:40:35;6.50;99.90
28614;DHT22;15806;53.548;9.964;2023-02-01T04:42:15;6.60;99.90
28614;DHT22;15806;53.548;9.964;2023-02-01T04:43:56;6.60;99.90
28614;DHT22;15806;53.548;9.964;2023-02-01T04:45:36;6.50;99.90
28614;DHT22;15806;53.548;9.964;2023-02-01T04:47:17;6.50;99.90
28614;DHT22;15806;53.548;9.964;2023-02-01T04:48:57;6.50;99.90
28614;DHT22;15806;53.548;9.964;2023-02-01T04:50:38;6.60;99.90
28614;DHT22;15806;53.548;9.964;2023-02-01T04:52:18;6.60;99.90
28614;DHT22;15806;53.548;9.964;2023-02-01T04:53:59;6.60;99.90
28614;DHT22;15806;53.548;9.964;2023-02-01T04:55:40;6.60;99.90
28614;DHT22;15806;53.548;9.964;2023-02-01T04:57:20;6.60;99.90
28614;DHT22;15806;53.548;9.964;2023-02-01T04:59:01;6.50;99.90
28614;DHT22;15806;53.548;9.964;2023-02-01T05:00:41;6.60;99.90
28614;DHT22;15806;53.548;9.964;2023-02-01T05:02:22;6.50;99.90
28614;DHT22;15806;53.548;9.964;2023-02-01T05:04:03;6.60;99.90
28614;DHT22;15806;53.548;9.964;2023-02-01T05:05:43;6.60;99.90
28614;DHT22;15806;53.548;9.964;2023-02-01T05:07:24;6.60;99.90
28614;DHT22;15806;53.548;9.964;2023-02-01T05:09:05;6.50;99.90
28614;DHT22;15806;53.548;9.964;2023-02-01T05:10:45;6.50;99.90
28614;DHT22;15806;53.548;9.964;2023-02-01T05:12:26;6.40;99.90
28614;DHT22;15806;53.548;9.964;2023-02-01T05:14:06;6.30;99.90
28614;DHT22;15806;53.548;9.964;2023-02-01T05:15:47;6.20;99.90
28614;DHT22;15806;53.548;9.964;2023-02-01T05:17:27;6.10;99.90
28614;DHT22;15806;53.548;9.964;2023-02-01T05:19:08;6.00;99.90
28614;DHT22;15806;53.548;9.964;2023-02-01T05:20:48;6.10;99.90
28614;DHT22;15806;53.548;9.964;2023-02-01T05:22:29;6.00;99.90
28614;DHT22;15806;53.548;9.964;2023-02-01T05:24:09;6.00;99.90
28614;DHT22;15806;53.548;9.964;2023-02-01T05:25:50;5.80;99.90
28614;DHT22;15806;53.548;9.964;2023-02-01T05:27:31;5.70;99.90
28614;DHT22;15806;53.548;9.964;2023-02-01T05:29:11;5.80;99.90
28614;DHT22;15806;53.548;9.964;2023-02-01T05:30:52;5.80;99.90
28614;DHT22;15806;53.548;9.964;2023-02-01T05:32:33;5.80;99.90
28614;DHT22;15806;53.548;9.964;2023-02-01T05:34:14;5.90;99.90
28614;DHT22;15806;53.548;9.964;2023-02-01T05:35:54;5.90;99.90
28614;DHT22;15806;53.548;9.964;2023-02-01T05:37:35;6.00;99.90
28614;DHT22;15806;53.548;9.964;2023-02-01T05:39:15;6.00;99.90
28614;DHT22;15806;53.548;9.964;2023-02-01T05:40:56;6.10;99.90
28614;DHT22;15806;53.548;9.964;2023-02-01T05:42:37;6.00;99.90
28614;DHT22;15806;53.548;9.964;2023-02-01T05:44:17;6.00;99.90
28614;DHT22;15806;53.548;9.964;2023-02-01T05:45:58;6.10;99.90
28614;DHT22;15806;53.548;9.964;2023-02-01T05:47:38;6.10;99.90
28614;DHT22;15806;53.548;9.964;2023-02-01T05:49:19;6.20;99.90
28614;DHT22;15806;53.548;9.964;2023-02-01T05:50:59;6.20;99.90
28614;DHT22;15806;53.548;9.964;2023-02-01T05:52:40;6.10;99.90
28614;DHT22;15806;53.548;9.964;2023-02-01T05:54:21;6.10;99.90
28614;DHT22;15806;53.548;9.964;2023-02-01T05:56:05;6.20;99.90
28614;DHT22;15806;53.548;9.964;2023-02-01T05:57:45;6.10;99.90
28614;DHT22;15806;53.548;9.964;2023-02-01T05:59:26;6.10;99.90
28614;DHT22;15806;53.548;9.964;2023-02-01T06:01:06;6.10;99.90
28614;DHT22;15806;53.548;9.964;2023-02-01T06:02:47;6.20;99.90
28614;DHT22;15806;53.548;9.964;2023-02-01T06:04:27;6.30;99.90
28614;DHT22;15806;53.548;9.964;2023-02-01T06:06:08;6.30;99.90
28614;DHT22;15806;53.548;9.964;2023-02-01T06:07:49;6.30;99.90
28614;DHT22;15806;53.548;9.964;2023-02-01T06:09:29;6.30;99.90
28614;DHT22;15806;53.548;9.964;2023-02-01T06:11:10;6.40;99.90
28614;DHT22;15806;53.548;9.964;2023-02-01T06:12:50;6.40;99.90
28614;DHT22;15806;53.548;9.964;2023-02-01T06:14:31;6.40;99.90
28614;DHT22;15806;53.548;9.964;2023-02-01T06:16:12;6.50;99.90
28614;DHT22;15806;53.548;9.964;2023-02-01T06:17:52;6.50;99.90
28614;DHT22;15806;53.548;9.964;2023-02-01T06:19:33;6.50;99.90
28614;DHT22;15806;53.548;9.964;2023-02-01T06:21:13;6.60;99.90
28614;DHT22;15806;53.548;9.964;2023-02-01T06:22:54;6.70;99.90
28614;DHT22;15806;53.548;9.964;2023-02-01T06:24:34;6.80;99.90
28614;DHT22;15806;53.548;9.964;2023-02-01T06:26:15;6.80;99.90
28614;DHT22;15806;53.548;9.964;2023-02-01T06:27:55;6.80;99.90
28614;DHT22;15806;53.548;9.964;2023-02-01T06:29:40;6.90;99.90
28614;DHT22;15806;53.548;9.964;2023-02-01T06:31:21;7.00;99.90
28614;DHT22;15806;53.548;9.964;2023-02-01T06:33:04;7.10;99.90
28614;DHT22;15806;53.548;9.964;2023-02-01T06:34:47;7.10;99.90
28614;DHT22;15806;53.548;9.964;2023-02-01T06:36:28;7.10;99.90
28614;DHT22;15806;53.548;9.964;2023-02-01T06:38:08;7.20;99.90
28614;DHT22;15806;53.548;9.964;2023-02-01T06:39:52;7.20;99.90
28614;DHT22;15806;53.548;9.964;2023-02-01T06:41:32;7.30;99.90
28614;DHT22;15806;53.548;9.964;2023-02-01T06:43:13;7.40;99.90
28614;DHT22;15806;53.548;9.964;2023-02-01T06:44:59;7.40;99.90
28614;DHT22;15806;53.548;9.964;2023-02-01T06:46:42;7.50;99.90
28614;DHT22;15806;53.548;9.964;2023-02-01T06:48:23;7.50;99.90
28614;DHT22;15806;53.548;9.964;2023-02-01T06:50:04;7.60;99.90
28614;DHT22;15806;53.548;9.964;2023-02-01T06:51:44;7.60;99.90
28614;DHT22;15806;53.548;9.964;2023-02-01T06:53:25;7.60;99.90
28614;DHT22;15806;53.548;9.964;2023-02-01T06:55:06;7.60;99.90
28614;DHT22;15806;53.548;9.964;2023-02-01T06:56:47;7.60;99.90
28614;DHT22;15806;53.548;9.964;2023-02-01T06:58:31;7.70;99.90
28614;DHT22;15806;53.548;9.964;2023-02-01T07:00:13;7.70;99.90
28614;DHT22;15806;53.548;9.964;2023-02-01T07:01:53;7.80;99.90
28614;DHT22;15806;53.548;9.964;2023-02-01T07:03:34;7.80;99.90
28614;DHT22;15806;53.548;9.964;2023-02-01T07:05:15;7.80;99.90
28614;DHT22;15806;53.548;9.964;2023-02-01T07:06:56;7.80;99.90
28614;DHT22;15806;53.548;9.964;2023-02-01T07:08:37;7.90;99.90
28614;DHT22;15806;53.548;9.964;2023-02-01T07:10:18;8.00;99.90
28614;DHT22;15806;53.548;9.964;2023-02-01T07:11:58;8.00;99.90
28614;DHT22;15806;53.548;9.964;2023-02-01T07:13:39;8.00;99.90
28614;DHT22;15806;53.548;9.964;2023-02-01T07:15:20;8.10;99.90
28614;DHT22;15806;53.548;9.964;2023-02-01T07:17:01;8.00;99.90
28614;DHT22;15806;53.548;9.964;2023-02-01T07:18:41;8.10;99.90
28614;DHT22;15806;53.548;9.964;2023-02-01T07:20:22;8.20;99.90
28614;DHT22;15806;53.548;9.964;2023-02-01T07:22:03;8.20;99.90
28614;DHT22;15806;53.548;9.964;2023-02-01T07:23:43;8.30;99.90
28614;DHT22;15806;53.548;9.964;2023-02-01T07:25:24;8.30;99.90
28614;DHT22;15806;53.548;9.964;2023-02-01T07:27:04;8.30;99.90
28614;DHT22;15806;53.548;9.964;2023-02-01T07:28:45;8.40;99.90
28614;DHT22;15806;53.548;9.964;2023-02-01T07:30:26;8.50;99.90
28614;DHT22;15806;53.548;9.964;2023-02-01T07:32:06;8.50;99.90
28614;DHT22;15806;53.548;9.964;2023-02-01T07:33:49;8.60;99.90
28614;DHT22;15806;53.548;9.964;2023-02-01T07:35:30;8.70;99.90
28614;DHT22;15806;53.548;9.964;2023-02-01T07:37:11;8.70;99.90
28614;DHT22;15806;53.548;9.964;2023-02-01T07:38:51;8.80;99.90
28614;DHT22;15806;53.548;9.964;2023-02-01T07:40:32;8.80;99.90
28614;DHT22;15806;53.548;9.964;2023-02-01T07:42:12;8.80;99.90
28614;DHT22;15806;53.548;9.964;2023-02-01T07:43:53;8.80;99.90
28614;DHT22;15806;53.548;9.964;2023-02-01T07:45:35;8.90;99.90
28614;DHT22;15806;53.548;9.964;2023-02-01T07:47:16;8.90;99.90
28614;DHT22;15806;53.548;9.964;2023-02-01T07:48:57;8.90;99.90
28614;DHT22;15806;53.548;9.964;2023-02-01T07:50:37;8.90;99.90
28614;DHT22;15806;53.548;9.964;2023-02-01T07:52:18;9.00;99.90
28614;DHT22;15806;53.548;9.964;2023-02-01T07:53:58;9.00;99.90
28614;DHT22;15806;53.548;9.964;2023-02-01T07:55:39;9.00;99.90
28614;DHT22;15806;53.548;9.964;2023-02-01T07:57:20;8.90;99.90
28614;DHT22;15806;53.548;9.964;2023-02-01T07:59:01;8.90;99.90
28614;DHT22;15806;53.548;9.964;2023-02-01T08:00:41;8.90;99.90
28614;DHT22;15806;53.548;9.964;2023-02-01T08:02:22;8.90;99.90
28614;DHT22;15806;53.548;9.964;2023-02-01T08:04:03;8.80;99.90
28614;DHT22;15806;53.548;9.964;2023-02-01T08:05:44;8.90;99.90
28614;DHT22;15806;53.548;9.964;2023-02-01T08:07:24;8.80;99.90
28614;DHT22;15806;53.548;9.964;2023-02-01T08:09:05;8.80;99.90
28614;DHT22;15806;53.548;9.964;2023-02-01T08:10:46;8.70;99.90
28614;DHT22;15806;53.548;9.964;2023-02-01T08:12:27;8.70;99.90
28614;DHT22;15806;53.548;9.964;2023-02-01T08:14:07;8.70;99.90
28614;DHT22;15806;53.548;9.964;2023-02-01T08:15:48;8.70;99.90
28614;DHT22;15806;53.548;9.964;2023-02-01T08:17:28;8.60;99.90
28614;DHT22;15806;53.548;9.964;2023-02-01T08:19:09;8.60;99.90
28614;DHT22;15806;53.548;9.964;2023-02-01T08:20:49;8.50;99.90
28614;DHT22;15806;53.548;9.964;2023-02-01T08:22:33;8.50;99.90
28614;DHT22;15806;53.548;9.964;2023-02-01T08:24:13;8.50;99.90
28614;DHT22;15806;53.548;9.964;2023-02-01T08:25:54;8.40;99.90
28614;DHT22;15806;53.548;9.964;2023-02-01T08:27:35;8.50;99.90
28614;DHT22;15806;53.548;9.964;2023-02-01T08:29:16;8.40;99.90
28614;DHT22;15806;53.548;9.964;2023-02-01T08:30:56;8.40;99.90
28614;DHT22;15806;53.548;9.964;2023-02-01T08:32:37;8.50;99.90
28614;DHT22;15806;53.548;9.964;2023-02-01T08:34:17;8.60;99.90
28614;DHT22;15806;53.548;9.964;2023-02-01T08:36:00;8.50;99.90
28614;DHT22;15806;53.548;9.964;2023-02-01T08:37:41;8.50;99.90
28614;DHT22;15806;53.548;9.964;2023-02-01T08:39:21;8.30;99.90
28614;DHT22;15806;53.548;9.964;2023-02-01T08:41:10;8.10;99.90
28614;DHT22;15806;53.548;9.964;2023-02-01T08:42:51;8.00;99.90
28614;DHT22;15806;53.548;9.964;2023-02-01T08:44:32;7.70;99.90
28614;DHT22;15806;53.548;9.964;2023-02-01T08:46:12;7.70;99.90
28614;DHT22;15806;53.548;9.964;2023-02-01T08:47:53;7.50;99.90
28614;DHT22;15806;53.548;9.964;2023-02-01T08:49:34;7.50;99.90
28614;DHT22;15806;53.548;9.964;2023-02-01T08:51:16;7.40;99.90
28614;DHT22;15806;53.548;9.964;2023-02-01T08:52:57;7.40;99.90
28614;DHT22;15806;53.548;9.964;2023-02-01T08:54:38;7.30;99.90
28614;DHT22;15806;53.548;9.964;2023-02-01T08:56:19;7.30;99.90
28614;DHT22;15806;53.548;9.964;2023-02-01T08:58:00;7.20;99.90
28614;DHT22;15806;53.548;9.964;2023-02-01T08:59:40;7.20;99.90
28614;DHT22;15806;53.548;9.964;2023-02-01T09:01:21;7.20;99.90
28614;DHT22;15806;53.548;9.964;2023-02-01T09:03:02;7.20;99.90
28614;DHT22;15806;53.548;9.964;2023-02-01T09:04:42;7.20;99.90
28614;DHT22;15806;53.548;9.964;2023-02-01T09:06:23;7.10;99.90
28614;DHT22;15806;53.548;9.964;2023-02-01T09:08:04;7.20;99.90
28614;DHT22;15806;53.548;9.964;2023-02-01T09:09:45;7.20;99.90
28614;DHT22;15806;53.548;9.964;2023-02-01T09:11:25;7.10;99.90
28614;DHT22;15806;53.548;9.964;2023-02-01T09:13:07;7.00;99.90
28614;DHT22;15806;53.548;9.964;2023-02-01T09:14:48;6.90;99.90
28614;DHT22;15806;53.548;9.964;2023-02-01T09:16:29;7.00;99.90
28614;DHT22;15806;53.548;9.964;2023-02-01T09:18:09;7.00;99.90
28614;DHT22;15806;53.548;9.964;2023-02-01T09:19:50;6.90;99.90
28614;DHT22;15806;53.548;9.964;2023-02-01T09:21:30;6.90;99.90
28614;DHT22;15806;53.548;9.964;2023-02-01T09:23:11;6.90;99.90
28614;DHT22;15806;53.548;9.964;2023-02-01T09:24:52;6.90;99.90
28614;DHT22;15806;53.548;9.964;2023-02-01T09:26:33;6.80;99.90
28614;DHT22;15806;53.548;9.964;2023-02-01T09:28:13;6.80;99.90
28614;DHT22;15806;53.548;9.964;2023-02-01T09:29:54;6.70;99.90
28614;DHT22;15806;53.548;9.964;2023-02-01T09:31:34;6.70;99.90
28614;DHT22;15806;53.548;9.964;2023-02-01T09:33:15;6.70;99.90
28614;DHT22;15806;53.548;9.964;2023-02-01T09:34:55;6.70;99.90
28614;DHT22;15806;53.548;9.964;2023-02-01T09:36:36;6.70;99.90
28614;DHT22;15806;53.548;9.964;2023-02-01T09:38:17;6.70;99.90
28614;DHT22;15806;53.548;9.964;2023-02-01T09:39:57;6.70;99.90
28614;DHT22;15806;53.548;9.964;2023-02-01T09:43:38;6.90;99.90
28614;DHT22;15806;53.548;9.964;2023-02-01T09:47:30;6.80;99.90
28614;DHT22;15806;53.548;9.964;2023-02-01T09:49:20;6.90;99.90
28614;DHT22;15806;53.548;9.964;2023-02-01T09:51:05;7.00;99.90
28614;DHT22;15806;53.548;9.964;2023-02-01T09:52:57;7.00;99.90
28614;DHT22;15806;53.548;9.964;2023-02-01T09:54:47;7.00;99.90
28614;DHT22;15806;53.548;9.964;2023-02-01T09:56:36;7.00;99.90
28614;DHT22;15806;53.548;9.964;2023-02-01T09:58:36;7.00;99.90
28614;DHT22;15806;53.548;9.964;2023-02-01T10:00:25;7.00;99.90
28614;DHT22;15806;53.548;9.964;2023-02-01T10:04:01;7.00;99.90
28614;DHT22;15806;53.548;9.964;2023-02-01T10:10:15;7.00;99.90
28614;DHT22;15806;53.548;9.964;2023-02-01T10:12:21;7.00;99.90
28614;DHT22;15806;53.548;9.964;2023-02-01T10:18:44;6.90;99.90
28614;DHT22;15806;53.548;9.964;2023-02-01T10:20:47;7.00;99.90
28614;DHT22;15806;53.548;9.964;2023-02-01T10:22:53;7.00;99.90
28614;DHT22;15806;53.548;9.964;2023-02-01T10:26:23;6.90;99.90
28614;DHT22;15806;53.548;9.964;2023-02-01T10:28:04;6.90;99.90
28614;DHT22;15806;53.548;9.964;2023-02-01T10:29:49;6.90;99.90
28614;DHT22;15806;53.548;9.964;2023-02-01T10:31:35;6.90;99.90
28614;DHT22;15806;53.548;9.964;2023-02-01T10:33:33;6.90;99.90
28614;DHT22;15806;53.548;9.964;2023-02-01T10:35:22;6.90;99.90
28614;DHT22;15806;53.548;9.964;2023-02-01T10:37:20;6.90;99.90
28614;DHT22;15806;53.548;9.964;2023-02-01T10:39:06;6.90;99.90
28614;DHT22;15806;53.548;9.964;2023-02-01T10:40:47;6.90;99.90
28614;DHT22;15806;53.548;9.964;2023-02-01T10:42:29;6.90;99.90
28614;DHT22;15806;53.548;9.964;2023-02-01T10:44:13;6.90;99.90
28614;DHT22;15806;53.548;9.964;2023-02-01T10:45:54;6.90;99.90
28614;DHT22;15806;53.548;9.964;2023-02-01T10:47:37;6.90;99.90
28614;DHT22;15806;53.548;9.964;2023-02-01T10:49:33;6.90;99.90
28614;DHT22;15806;53.548;9.964;2023-02-01T10:51:22;6.90;99.90
28614;DHT22;15806;53.548;9.964;2023-02-01T10:57:26;6.90;99.90
28614;DHT22;15806;53.548;9.964;2023-02-01T10:59:19;6.90;99.90
28614;DHT22;15806;53.548;9.964;2023-02-01T11:01:02;6.90;99.90
28614;DHT22;15806;53.548;9.964;2023-02-01T11:02:43;6.90;99.90
28614;DHT22;15806;53.548;9.964;2023-02-01T11:04:25;6.90;99.90
28614;DHT22;15806;53.548;9.964;2023-02-01T11:06:19;6.90;99.90
28614;DHT22;15806;53.548;9.964;2023-02-01T11:08:02;7.00;99.90
28614;DHT22;15806;53.548;9.964;2023-02-01T11:09:49;7.00;99.90
28614;DHT22;15806;53.548;9.964;2023-02-01T11:11:30;7.00;99.90
28614;DHT22;15806;53.548;9.964;2023-02-01T11:13:16;7.00;99.90
28614;DHT22;15806;53.548;9.964;2023-02-01T11:15:01;7.00;99.90
28614;DHT22;15806;53.548;9.964;2023-02-01T11:16:48;7.00;99.90
28614;DHT22;15806;53.548;9.964;2023-02-01T11:18:39;7.00;99.90
28614;DHT22;15806;53.548;9.964;2023-02-01T11:20:34;7.00;99.90
28614;DHT22;15806;53.548;9.964;2023-02-01T11:22:16;6.90;99.90
28614;DHT22;15806;53.548;9.964;2023-02-01T11:24:03;6.90;99.90
28614;DHT22;15806;53.548;9.964;2023-02-01T11:25:49;6.90;99.90
28614;DHT22;15806;53.548;9.964;2023-02-01T11:27:33;6.90;99.90
28614;DHT22;15806;53.548;9.964;2023-02-01T11:29:17;7.00;99.90
28614;DHT22;15806;53.548;9.964;2023-02-01T11:31:11;7.00;99.90
28614;DHT22;15806;53.548;9.964;2023-02-01T11:32:55;7.00;99.90
28614;DHT22;15806;53.548;9.964;2023-02-01T11:34:46;7.00;99.90
28614;DHT22;15806;53.548;9.964;2023-02-01T11:36:30;7.00;99.90
28614;DHT22;15806;53.548;9.964;2023-02-01T11:40:23;7.00;99.90
28614;DHT22;15806;53.548;9.964;2023-02-01T11:42:13;7.10;99.90
28614;DHT22;15806;53.548;9.964;2023-02-01T11:44:00;7.10;99.90
28614;DHT22;15806;53.548;9.964;2023-02-01T11:45:42;7.00;99.90
28614;DHT22;15806;53.548;9.964;2023-02-01T11:47:41;7.00;99.90
28614;DHT22;15806;53.548;9.964;2023-02-01T11:49:23;7.00;99.90
28614;DHT22;15806;53.548;9.964;2023-02-01T11:59:49;7.00;99.90
28614;DHT22;15806;53.548;9.964;2023-02-01T12:01:46;7.00;99.90
28614;DHT22;15806;53.548;9.964;2023-02-01T12:05:41;7.00;99.90